createdAt,value
2024-04-10T00:00:21.897Z,4.63
2024-04-10T00:02:48.680Z,4.80
2024-04-10T00:05:15.700Z,4.90
2024-04-10T00:07:42.716Z,4.70
2024-04-10T00:10:09.526Z,4.57
2024-04-10T00:12:36.446Z,4.60
2024-04-10T00:15:03.244Z,4.53
2024-04-10T00:17:30.727Z,4.65
2024-04-10T00:19:57.704Z,4.80
2024-04-10T00:22:24.607Z,4.65
2024-04-10T00:24:54.337Z,4.70
2024-04-10T00:27:23.732Z,4.60
2024-04-10T00:29:52.083Z,4.85
2024-04-10T00:32:19.326Z,4.93
2024-04-10T00:34:46.520Z,4.88
2024-04-10T00:37:13.322Z,4.80
2024-04-10T00:39:40.038Z,4.82
2024-04-10T00:42:06.796Z,4.50
2024-04-10T00:44:33.774Z,4.50
2024-04-10T00:47:00.856Z,4.45
2024-04-10T00:49:28.292Z,4.53
2024-04-10T00:51:55.269Z,6.35
2024-04-10T00:54:23.820Z,4.63
2024-04-10T00:56:50.729Z,4.63
2024-04-10T00:59:17.550Z,4.68
2024-04-10T01:01:44.368Z,4.85
2024-04-10T01:04:11.242Z,4.60
2024-04-10T01:06:38.178Z,4.70
2024-04-10T01:09:04.908Z,4.60
2024-04-10T01:11:31.735Z,4.95
2024-04-10T01:13:58.766Z,4.68
2024-04-10T01:16:25.701Z,4.70
2024-04-10T01:18:52.610Z,4.60
2024-04-10T01:21:19.422Z,4.50
2024-04-10T01:23:46.317Z,4.68
2024-04-10T01:26:13.225Z,4.72
2024-04-10T01:28:40.029Z,4.80
2024-04-10T01:31:06.841Z,5.25
2024-04-10T01:33:36.080Z,4.90
2024-04-10T01:36:05.067Z,4.85
2024-04-10T01:38:32.086Z,5.55
2024-04-10T01:40:58.988Z,4.97
2024-04-10T01:43:25.768Z,5.00
2024-04-10T01:45:52.809Z,4.70
2024-04-10T01:48:19.777Z,5.30
2024-04-10T01:50:46.697Z,4.80
2024-04-10T01:53:13.464Z,4.85
2024-04-10T01:55:40.192Z,4.88
2024-04-10T01:58:07.062Z,4.82
2024-04-10T02:00:36.579Z,4.88
2024-04-10T02:03:03.530Z,4.68
2024-04-10T02:05:30.428Z,4.70
2024-04-10T02:07:57.353Z,4.80
2024-04-10T02:10:24.167Z,5.10
2024-04-10T02:12:50.882Z,4.90
2024-04-10T02:15:17.641Z,4.97
2024-04-10T02:17:44.637Z,4.60
2024-04-10T02:20:11.705Z,4.60
2024-04-10T02:22:42.801Z,4.70
2024-04-10T02:25:09.738Z,4.85
2024-04-10T02:27:36.547Z,5.38
2024-04-10T02:30:03.344Z,4.70
2024-04-10T02:32:30.377Z,5.00
2024-04-10T02:34:57.318Z,4.80
2024-04-10T02:37:25.059Z,4.97
2024-04-10T02:39:52.079Z,4.75
2024-04-10T02:42:18.816Z,4.75
2024-04-10T02:44:52.034Z,4.95
2024-04-10T02:47:20.571Z,4.95
2024-04-10T02:49:47.646Z,4.80
2024-04-10T02:52:14.365Z,4.85
2024-04-10T02:54:41.111Z,5.15
2024-04-10T02:57:07.932Z,4.97
2024-04-10T02:59:34.774Z,4.80
2024-04-10T03:02:01.723Z,5.10
2024-04-10T03:04:28.798Z,5.00
2024-04-10T03:06:55.575Z,4.82
2024-04-10T03:09:22.607Z,4.70
2024-04-10T03:11:49.539Z,4.97
2024-04-10T03:14:18.079Z,4.75
2024-04-10T03:16:46.215Z,4.85
2024-04-10T03:19:15.750Z,5.00
2024-04-10T03:21:42.602Z,4.85
2024-04-10T03:24:09.683Z,5.20
2024-04-10T03:26:36.545Z,5.30
2024-04-10T03:29:03.436Z,4.93
2024-04-10T03:31:30.333Z,5.35
2024-04-10T03:33:57.161Z,5.32
2024-04-10T03:36:24.097Z,4.85
2024-04-10T03:38:52.853Z,4.78
2024-04-10T03:41:21.076Z,5.15
2024-04-10T03:43:47.883Z,5.20
2024-04-10T03:46:14.621Z,4.82
2024-04-10T03:48:41.567Z,4.80
2024-04-10T03:51:08.415Z,5.50
2024-04-10T03:53:35.251Z,5.00
2024-04-10T03:56:02.721Z,4.80
2024-04-10T03:58:29.547Z,5.72
2024-04-10T04:00:56.308Z,5.13
2024-04-10T04:03:23.245Z,4.88
2024-04-10T04:05:50.049Z,4.88
2024-04-10T04:08:16.967Z,5.00
2024-04-10T04:10:44.782Z,4.93
2024-04-10T04:13:11.728Z,4.75
2024-04-10T04:15:41.885Z,4.97
2024-04-10T04:18:08.786Z,4.90
2024-04-10T04:20:35.758Z,5.70
2024-04-10T04:23:02.762Z,5.03
2024-04-10T04:25:32.022Z,5.60
2024-04-10T04:27:58.724Z,5.30
2024-04-10T04:30:25.503Z,5.28
2024-04-10T04:32:52.461Z,4.82
2024-04-10T04:35:19.406Z,5.57
2024-04-10T04:37:54.809Z,5.10
2024-04-10T04:40:21.616Z,5.45
2024-04-10T04:42:48.448Z,5.10
2024-04-10T04:45:15.274Z,5.50
2024-04-10T04:47:42.014Z,5.43
2024-04-10T04:50:12.579Z,5.53
2024-04-10T04:52:39.347Z,5.70
2024-04-10T04:55:06.521Z,5.20
2024-04-10T04:57:33.211Z,5.45
2024-04-10T05:00:00.527Z,5.30
2024-04-10T05:02:27.522Z,4.95
2024-04-10T05:05:01.725Z,5.47
2024-04-10T05:07:28.759Z,4.90
2024-04-10T05:09:56.848Z,5.18
2024-04-10T05:12:23.701Z,5.13
2024-04-10T05:14:51.997Z,5.25
2024-04-10T05:17:19.754Z,4.88
2024-04-10T05:19:46.597Z,5.35
2024-04-10T05:22:14.525Z,5.00
2024-04-10T05:24:42.551Z,5.45
2024-04-10T05:27:21.984Z,5.40
2024-04-10T05:29:56.373Z,5.38
2024-04-10T05:32:23.715Z,5.20
2024-04-10T05:34:53.431Z,5.10
2024-04-10T05:37:20.773Z,5.47
2024-04-10T05:40:10.903Z,5.38
2024-04-10T05:42:38.503Z,5.40
2024-04-10T05:45:10.306Z,5.20
2024-04-10T05:47:38.667Z,5.20
2024-04-10T05:50:06.935Z,5.65
2024-04-10T05:52:35.020Z,5.00
2024-04-10T05:55:01.791Z,4.90
2024-04-10T05:57:28.899Z,5.38
2024-04-10T05:59:55.969Z,5.10
2024-04-10T06:02:23.446Z,4.88
2024-04-10T06:04:57.061Z,5.07
2024-04-10T06:07:24.605Z,4.82
2024-04-10T06:09:56.037Z,5.07
2024-04-10T06:12:23.624Z,6.00
2024-04-10T06:14:54.038Z,5.07
2024-04-10T06:17:23.971Z,5.05
2024-04-10T06:19:51.039Z,5.70
2024-04-10T06:22:21.834Z,5.10
2024-04-10T06:24:50.444Z,4.93
2024-04-10T06:27:17.219Z,5.25
2024-04-10T06:29:44.878Z,5.38
2024-04-10T06:32:13.578Z,4.95
2024-04-10T06:34:41.343Z,4.90
2024-04-10T06:37:08.274Z,5.60
2024-04-10T06:39:35.759Z,4.93
2024-04-10T06:42:02.549Z,4.78
2024-04-10T06:44:29.506Z,4.70
2024-04-10T06:46:56.454Z,4.90
2024-04-10T06:49:24.202Z,4.75
2024-04-10T06:51:50.990Z,4.85
2024-04-10T06:54:22.065Z,4.70
2024-04-10T06:56:49.187Z,4.70
2024-04-10T06:59:17.070Z,4.57
2024-04-10T07:01:44.007Z,4.80
2024-04-10T07:04:10.720Z,4.50
2024-04-10T07:06:37.447Z,4.40
2024-04-10T07:09:04.214Z,4.20
2024-04-10T07:11:32.482Z,5.88
2024-04-10T07:14:02.836Z,4.00
2024-04-10T07:16:31.790Z,3.92
2024-04-10T07:18:59.424Z,3.60
2024-04-10T07:21:26.807Z,3.80
2024-04-10T07:23:57.998Z,3.47
2024-04-10T07:26:27.489Z,3.23
2024-04-10T07:28:56.786Z,3.00
2024-04-10T07:31:30.467Z,3.10
2024-04-10T07:33:58.622Z,2.90
2024-04-10T07:36:26.280Z,3.23
2024-04-10T07:38:59.793Z,3.13
2024-04-10T07:41:26.958Z,2.63
2024-04-10T07:43:54.436Z,2.90
2024-04-10T07:46:22.353Z,2.70
2024-04-10T07:48:54.161Z,2.60
2024-04-10T07:51:21.169Z,2.90
2024-04-10T07:53:49.089Z,2.63
2024-04-10T07:56:16.830Z,2.97
2024-04-10T07:58:44.619Z,2.83
2024-04-10T08:01:12.605Z,2.60
2024-04-10T08:03:40.121Z,2.80
2024-04-10T08:06:08.943Z,2.90
2024-04-10T08:08:41.044Z,2.57
2024-04-10T08:11:09.649Z,2.37
2024-04-10T08:13:37.412Z,2.77
2024-04-10T08:16:06.392Z,2.50
2024-04-10T08:18:38.477Z,2.17
2024-04-10T08:21:07.352Z,2.33
2024-04-10T08:23:35.367Z,2.30
2024-04-10T08:26:13.821Z,2.30
2024-04-10T08:28:52.637Z,2.37
2024-04-10T08:31:29.180Z,2.30
2024-04-10T08:33:56.520Z,2.00
2024-04-10T08:36:24.479Z,2.07
2024-04-10T08:38:52.433Z,2.23
2024-04-10T08:41:23.143Z,2.23
2024-04-10T08:43:52.387Z,2.43
2024-04-10T08:46:21.833Z,2.20
2024-04-10T08:48:52.304Z,2.00
2024-04-10T08:51:19.429Z,2.53
2024-04-10T08:53:47.413Z,2.00
2024-04-10T08:56:16.527Z,2.00
2024-04-10T08:58:46.806Z,2.50
2024-04-10T09:01:32.482Z,2.00
2024-04-10T09:04:10.451Z,2.10
2024-04-10T09:06:38.382Z,2.13
2024-04-10T09:09:08.103Z,1.90
2024-04-10T09:11:35.777Z,2.00
2024-04-10T09:14:13.459Z,1.80
2024-04-10T09:16:41.026Z,2.30
2024-04-10T09:19:16.731Z,2.47
2024-04-10T09:21:45.425Z,2.30
2024-04-10T09:24:16.296Z,2.53
2024-04-10T09:26:49.792Z,2.90
2024-04-10T09:29:20.595Z,2.03
2024-04-10T09:33:36.137Z,2.40
2024-04-10T09:36:08.541Z,2.30
2024-04-10T09:38:37.536Z,2.30
2024-04-10T09:41:05.307Z,1.90
2024-04-10T09:43:33.034Z,2.50
2024-04-10T09:46:04.034Z,2.17
2024-04-10T09:48:35.154Z,2.20
2024-04-10T09:51:06.764Z,2.30
2024-04-10T09:53:34.771Z,2.20
2024-04-10T09:56:10.417Z,2.00
2024-04-10T09:58:38.652Z,2.20
2024-04-10T10:01:05.647Z,2.30
2024-04-10T10:03:33.073Z,1.97
2024-04-10T10:06:08.394Z,2.40
2024-04-10T10:08:36.342Z,2.40
2024-04-10T10:11:08.616Z,2.17
2024-04-10T10:13:43.788Z,2.17
2024-04-10T10:16:10.771Z,1.80
2024-04-10T10:18:37.642Z,1.87
2024-04-10T10:21:09.777Z,2.00
2024-04-10T10:23:38.102Z,2.20
2024-04-10T10:26:06.661Z,1.87
2024-04-10T10:28:37.092Z,2.23
2024-04-10T10:31:13.674Z,1.90
2024-04-10T10:33:42.927Z,2.03
2024-04-10T10:36:10.580Z,2.20
2024-04-10T10:38:37.922Z,2.50
2024-04-10T10:41:15.322Z,2.40
2024-04-10T10:43:45.152Z,2.80
2024-04-10T10:46:11.975Z,2.73
2024-04-10T10:48:38.983Z,2.90
2024-04-10T10:51:08.655Z,2.90
2024-04-10T10:53:35.844Z,2.90
2024-04-10T10:56:02.662Z,3.20
2024-04-10T10:58:30.718Z,3.33
2024-04-10T11:00:57.515Z,3.40
2024-04-10T11:03:29.882Z,3.40
2024-04-10T11:06:11.507Z,2.97
2024-04-10T11:08:39.167Z,2.90
2024-04-10T11:11:12.046Z,3.07
2024-04-10T11:13:53.209Z,2.63
2024-04-10T11:16:27.835Z,3.10
2024-04-10T11:18:55.544Z,2.90
2024-04-10T11:21:22.434Z,2.80
2024-04-10T11:23:49.272Z,2.97
2024-04-10T11:26:16.418Z,2.70
2024-04-10T11:28:44.328Z,3.13
2024-04-10T11:31:11.528Z,2.50
2024-04-10T11:33:38.581Z,2.60
2024-04-10T11:36:06.013Z,2.20
2024-04-10T11:38:32.876Z,2.20
2024-04-10T11:41:02.636Z,2.10
2024-04-10T11:43:30.189Z,2.00
2024-04-10T11:45:56.887Z,2.00
2024-04-10T11:48:23.736Z,1.63
2024-04-10T11:50:51.039Z,1.60
2024-04-10T11:53:17.885Z,1.70
2024-04-10T11:55:44.619Z,1.53
2024-04-10T11:58:11.913Z,1.60
2024-04-10T12:00:38.864Z,1.83
2024-04-10T12:03:05.878Z,2.00
2024-04-10T12:05:33.046Z,1.80
2024-04-10T12:07:59.811Z,2.13
2024-04-10T12:10:26.540Z,1.97
2024-04-10T12:12:53.330Z,2.20
2024-04-10T12:15:20.449Z,2.40
2024-04-10T12:17:47.256Z,2.40
2024-04-10T12:20:14.053Z,2.60
2024-04-10T12:22:41.661Z,2.50
2024-04-10T12:25:09.038Z,2.80
2024-04-10T12:27:35.778Z,3.20
2024-04-10T12:30:02.736Z,3.00
2024-04-10T12:32:29.824Z,2.60
2024-04-10T12:35:31.951Z,2.40
2024-04-10T12:38:08.585Z,2.57
2024-04-10T12:40:36.643Z,2.10
2024-04-10T12:43:04.974Z,2.40
2024-04-10T12:45:32.409Z,2.50
2024-04-10T12:47:59.566Z,2.60
2024-04-10T12:50:27.208Z,2.90
2024-04-10T12:52:54.280Z,2.60
2024-04-10T12:55:21.024Z,2.70
2024-04-10T12:57:47.734Z,3.93
2024-04-10T13:00:14.761Z,2.90
2024-04-10T13:02:41.604Z,3.03
2024-04-10T13:05:08.660Z,3.17
2024-04-10T13:07:35.480Z,3.23
2024-04-10T13:10:03.040Z,3.63
2024-04-10T13:12:29.917Z,3.17
2024-04-10T13:14:57.071Z,3.20
2024-04-10T13:17:25.951Z,3.37
2024-04-10T13:19:53.101Z,3.23
2024-04-10T13:22:19.802Z,3.20
2024-04-10T13:24:46.802Z,3.20
2024-04-10T13:27:14.987Z,3.17
2024-04-10T13:29:41.837Z,3.00
2024-04-10T13:32:09.716Z,4.00
2024-04-10T13:34:36.701Z,3.20
2024-04-10T13:37:03.759Z,3.07
2024-04-10T13:39:31.172Z,2.90
2024-04-10T13:41:58.092Z,3.27
2024-04-10T13:44:24.962Z,3.07
2024-04-10T13:46:51.792Z,2.80
2024-04-10T13:49:18.676Z,3.23
2024-04-10T13:51:45.447Z,2.97
2024-04-10T13:54:12.304Z,2.77
2024-04-10T13:56:39.080Z,3.10
2024-04-10T13:59:05.832Z,3.10
2024-04-10T14:01:32.864Z,2.87
2024-04-10T14:03:59.921Z,3.10
2024-04-10T14:06:29.223Z,3.07
2024-04-10T14:08:57.057Z,2.90
2024-04-10T14:11:24.522Z,3.27
2024-04-10T14:13:52.495Z,3.50
2024-04-10T14:16:20.310Z,3.30
2024-04-10T14:18:47.384Z,3.50
2024-04-10T14:21:14.564Z,2.90
2024-04-10T14:23:44.221Z,3.30
2024-04-10T14:26:16.254Z,3.10
2024-04-10T14:28:43.531Z,3.90
2024-04-10T14:31:12.320Z,3.00
2024-04-10T14:33:41.405Z,3.50
2024-04-10T14:36:09.217Z,3.30
2024-04-10T14:38:36.772Z,3.27
2024-04-10T14:41:04.892Z,2.70
2024-04-10T14:43:33.246Z,3.00
2024-04-10T14:46:09.867Z,3.20
2024-04-10T14:48:38.223Z,3.20
2024-04-10T14:51:06.442Z,3.27
2024-04-10T14:53:33.283Z,2.87
2024-04-10T14:56:08.449Z,2.70
2024-04-10T14:58:35.480Z,3.07
2024-04-10T15:01:12.039Z,3.10
2024-04-10T15:03:39.425Z,2.90
2024-04-10T15:06:06.932Z,3.00
2024-04-10T15:08:33.811Z,2.90
2024-04-10T15:11:00.734Z,3.23
2024-04-10T15:13:29.253Z,3.30
2024-04-10T15:15:56.063Z,3.20
2024-04-10T15:18:27.042Z,3.30
2024-04-10T15:20:55.061Z,3.90
2024-04-10T15:23:22.756Z,3.00
2024-04-10T15:25:57.564Z,3.17
2024-04-10T15:28:25.022Z,3.10
2024-04-10T15:31:03.045Z,3.13
2024-04-10T15:33:32.221Z,3.27
2024-04-10T15:36:06.355Z,3.30
2024-04-10T15:38:35.094Z,3.20
2024-04-10T15:41:04.269Z,3.00
2024-04-10T15:43:31.073Z,3.27
2024-04-10T15:45:59.702Z,3.20
2024-04-10T15:48:27.678Z,3.60
2024-04-10T15:50:56.441Z,4.10
2024-04-10T15:53:24.326Z,3.40
2024-04-10T15:56:05.748Z,3.50
2024-04-10T15:58:33.767Z,3.50
2024-04-10T16:01:05.774Z,3.10
2024-04-10T16:03:34.963Z,3.60
2024-04-10T16:06:05.012Z,3.60
2024-04-10T16:08:32.018Z,3.33
2024-04-10T16:10:59.072Z,3.58
2024-04-10T16:13:26.262Z,3.50
2024-04-10T16:15:53.873Z,3.53
2024-04-10T16:18:23.655Z,3.70
2024-04-10T16:20:50.551Z,3.50
2024-04-10T16:23:17.418Z,4.00
2024-04-10T16:25:44.172Z,3.50
2024-04-10T16:28:11.249Z,3.67
2024-04-10T16:30:41.190Z,3.95
2024-04-10T16:33:08.242Z,3.63
2024-04-10T16:35:35.189Z,4.27
2024-04-10T16:38:01.966Z,3.85
2024-04-10T16:40:28.675Z,3.75
2024-04-10T16:42:55.698Z,3.90
2024-04-10T16:45:25.127Z,4.50
2024-04-10T16:47:52.314Z,3.70
2024-04-10T16:50:19.571Z,3.70
2024-04-10T16:52:51.009Z,3.90
2024-04-10T16:55:17.954Z,4.13
2024-04-10T16:57:44.745Z,4.40
2024-04-10T17:00:12.459Z,4.45
2024-04-10T17:02:39.418Z,4.03
2024-04-10T17:05:06.804Z,3.90
2024-04-10T17:07:33.979Z,4.20
2024-04-10T17:10:00.829Z,4.03
2024-04-10T17:12:30.477Z,3.90
2024-04-10T17:14:57.708Z,4.10
2024-04-10T17:17:31.517Z,3.90
2024-04-10T17:20:27.731Z,4.00
2024-04-10T17:22:54.487Z,3.97
2024-04-10T17:25:21.383Z,5.50
2024-04-10T17:27:48.506Z,4.05
2024-04-10T17:30:15.479Z,4.22
2024-04-10T17:32:42.386Z,4.28
2024-04-10T17:35:09.250Z,4.32
2024-04-10T17:37:36.531Z,3.95
2024-04-10T17:40:03.998Z,4.97
2024-04-10T17:42:30.877Z,3.95
2024-04-10T17:44:57.588Z,4.35
2024-04-10T17:47:24.492Z,4.03
2024-04-10T17:49:51.329Z,4.25
2024-04-10T17:52:18.036Z,4.07
2024-04-10T17:54:44.761Z,4.50
2024-04-10T17:57:11.710Z,4.20
2024-04-10T17:59:38.603Z,4.60
2024-04-10T18:02:05.417Z,4.20
2024-04-10T18:04:32.179Z,4.18
2024-04-10T18:06:58.915Z,4.07
2024-04-10T18:09:25.698Z,4.78
2024-04-10T18:11:52.495Z,4.30
2024-04-10T18:14:19.370Z,4.28
2024-04-10T18:16:46.192Z,4.70
2024-04-10T18:19:13.403Z,4.50
2024-04-10T18:21:40.359Z,4.78
2024-04-10T18:24:07.602Z,4.22
2024-04-10T18:26:34.649Z,5.43
2024-04-10T18:29:07.147Z,4.72
2024-04-10T18:31:35.460Z,4.55
2024-04-10T18:34:02.319Z,4.70
2024-04-10T18:36:29.204Z,4.38
2024-04-10T18:38:55.967Z,5.05
2024-04-10T18:41:22.750Z,4.50
2024-04-10T18:43:49.536Z,4.50
2024-04-10T18:46:16.932Z,4.85
2024-04-10T18:48:43.924Z,4.78
2024-04-10T18:51:24.956Z,4.43
2024-04-10T18:53:51.900Z,4.60
2024-04-10T18:56:19.395Z,4.63
2024-04-10T18:58:46.676Z,5.07
2024-04-10T19:01:14.507Z,4.68
2024-04-10T19:03:43.385Z,4.60
2024-04-10T19:06:13.083Z,4.70
2024-04-10T19:08:41.756Z,4.93
2024-04-10T19:11:09.016Z,4.68
2024-04-10T19:13:36.115Z,6.20
2024-04-10T19:16:03.575Z,4.95
2024-04-10T19:18:32.999Z,4.90
2024-04-10T19:21:01.979Z,5.20
2024-04-10T19:23:29.388Z,5.00
2024-04-10T19:25:57.784Z,5.55
2024-04-10T19:28:26.360Z,5.60
2024-04-10T19:30:54.283Z,5.70
2024-04-10T19:33:22.003Z,5.93
2024-04-10T19:35:49.116Z,7.80
2024-04-10T19:38:16.724Z,5.65
2024-04-10T19:40:44.172Z,6.00
2024-04-10T19:43:11.379Z,6.40
2024-04-10T19:45:39.560Z,7.18
2024-04-10T19:48:07.592Z,6.70
2024-04-10T19:50:34.760Z,5.05
2024-04-10T19:53:01.459Z,4.95
2024-04-10T19:55:28.216Z,5.32
2024-04-10T19:57:54.955Z,5.50
2024-04-10T20:00:21.680Z,5.50
2024-04-10T20:02:49.380Z,5.20
2024-04-10T20:05:19.747Z,5.00
2024-04-10T20:07:47.922Z,4.90
2024-04-10T20:10:14.746Z,4.75
2024-04-10T20:12:41.685Z,4.95
2024-04-10T20:15:08.704Z,5.07
2024-04-10T20:17:35.978Z,5.20
2024-04-10T20:20:02.895Z,4.80
2024-04-10T20:22:29.662Z,5.40
2024-04-10T20:25:00.934Z,5.78
2024-04-10T20:27:27.698Z,5.80
2024-04-10T20:29:54.562Z,5.40
2024-04-10T20:32:21.547Z,5.32
2024-04-10T20:34:51.624Z,5.32
2024-04-10T20:37:18.339Z,4.90
2024-04-10T20:39:46.900Z,5.03
2024-04-10T20:42:19.868Z,5.30
2024-04-10T20:44:50.112Z,5.13
2024-04-10T20:47:22.404Z,5.15
2024-04-10T20:49:53.761Z,5.38
2024-04-10T20:52:21.333Z,4.82
2024-04-10T20:54:54.719Z,4.68
2024-04-10T20:57:21.439Z,5.10
2024-04-10T20:59:49.113Z,5.30
2024-04-10T21:02:21.747Z,5.57
2024-04-10T21:04:49.309Z,5.50
2024-04-10T21:07:34.891Z,5.68
2024-04-10T21:10:20.360Z,5.50
2024-04-10T21:13:05.915Z,5.22
2024-04-10T21:15:52.690Z,5.72
2024-04-10T21:18:39.360Z,4.80
2024-04-10T21:21:25.147Z,5.13
2024-04-10T21:24:10.869Z,5.43
2024-04-10T21:26:56.341Z,5.70
2024-04-10T21:29:41.861Z,5.55
2024-04-10T21:32:27.305Z,5.47
2024-04-10T21:35:15.281Z,5.25
2024-04-10T21:38:01.380Z,4.93
2024-04-10T21:40:46.682Z,5.70
2024-04-10T21:43:32.187Z,5.20
2024-04-10T21:46:18.510Z,5.28
2024-04-10T21:49:04.076Z,5.35
2024-04-10T21:51:49.737Z,5.18
2024-04-10T21:54:35.279Z,5.25
2024-04-10T21:57:20.952Z,5.10
2024-04-10T22:00:26.672Z,5.25
2024-04-10T22:03:12.514Z,5.40
2024-04-10T22:05:58.469Z,4.72
2024-04-10T22:08:44.253Z,5.18
2024-04-10T22:11:11.064Z,5.07
2024-04-10T22:13:38.166Z,5.60
2024-04-10T22:16:05.461Z,5.15
2024-04-10T22:18:51.252Z,5.25
2024-04-10T22:21:36.887Z,5.30
2024-04-10T22:24:05.523Z,5.40
2024-04-10T22:26:33.266Z,5.38
2024-04-10T22:29:00.062Z,5.30
2024-04-10T22:31:26.828Z,5.78
2024-04-10T22:33:54.519Z,5.38
2024-04-10T22:36:22.601Z,5.32
2024-04-10T22:38:49.404Z,5.35
2024-04-10T22:41:16.807Z,5.53
2024-04-10T22:43:43.978Z,5.80
2024-04-10T22:46:11.171Z,5.00
2024-04-10T22:48:39.191Z,5.45
2024-04-10T22:51:06.143Z,5.28
2024-04-10T22:53:33.012Z,4.93
2024-04-10T22:55:59.753Z,5.20
2024-04-10T22:58:26.460Z,4.82
2024-04-10T23:00:53.319Z,4.95
2024-04-10T23:03:20.397Z,5.93
2024-04-10T23:05:52.709Z,5.80
2024-04-10T23:08:31.347Z,5.75
2024-04-10T23:11:03.424Z,5.25
2024-04-10T23:13:31.082Z,5.35
2024-04-10T23:15:57.907Z,6.93
2024-04-10T23:18:36.388Z,5.38
2024-04-10T23:21:11.450Z,4.95
2024-04-10T23:23:38.176Z,5.30
2024-04-10T23:26:05.008Z,5.18
2024-04-10T23:28:31.892Z,5.15
2024-04-10T23:30:58.633Z,5.57
2024-04-10T23:33:25.545Z,5.10
2024-04-10T23:35:52.555Z,5.50
2024-04-10T23:38:19.475Z,5.30
2024-04-10T23:40:46.278Z,5.40
2024-04-10T23:43:12.995Z,5.70
2024-04-10T23:45:40.129Z,5.68
2024-04-10T23:48:07.524Z,5.47
2024-04-10T23:50:34.582Z,5.03
2024-04-10T23:53:01.347Z,5.25
2024-04-10T23:55:28.293Z,5.30
2024-04-10T23:57:58.168Z,5.57
